Ana Sayfa
METAR-TAF:

METAR-TAF

Havaalanları :

Puerto Peñasco, Meksika

Enlem: 31-21-07N, Boylam: 113-18-20W, yükseklik: 22 m

Güncel hava durumu gözlemi

Rapor saat 20:46 UTC de 4 saat ve 59 dakika önce yapıldı.
Rüzgar güneydan 16 kt ve 28 kt'a kadar ani rüzgarlar
Sıcaklık 17°C
Nem 52%
Basınç 1008 hPa
Görüş mesafesi: 16.1 km
2000 ft yükseklikte parçalı çok bulutlu

METAR: MMPE 252046Z 17016G28KT 10SM BKN020 17/07 A2978 RMK 8/800 DSNT RA NE

Saat: 18:45 (01:45 UTC)


TAF: eksik

4.000'den fazla havaalanı için hava durumu gözlemleri ve tahminleri (METAR ve TAF raporları).

Kullanılabilir istasyonlar harita üzerinde sarı ve kırmızı noktalarla gösterilir.

İstasyonun adını görmek için fareyi noktanın üzerinde gezdirin.

Sonrasında hava gözlem ve tahminlerini görmek için tıklayın.

Haritayı değiştirmek için: yaklaştırmak için siyah artı işaretli yeşil düğmeye ve uzaklaştırmak için de eksi işaretli düğmeye hızla tıklayın; bitişik haritalar için yeşil okları kullanın.


METAR-TAF: